createdAt,value
2017-01-26T00:03:08.153Z,1022.1
2017-01-26T00:13:22.523Z,1022.1
2017-01-26T00:23:35.536Z,1022
2017-01-26T00:33:48.657Z,1021.9
2017-01-26T00:44:03.423Z,1021.8
2017-01-26T00:54:17.074Z,1021.6
2017-01-26T01:04:30.837Z,1021.6
2017-01-26T01:14:45.265Z,1021.5
2017-01-26T01:24:58.519Z,1021.4
2017-01-26T01:35:12.877Z,1021.4
2017-01-26T01:45:27.382Z,1021.3
2017-01-26T01:55:41.532Z,1021.2
2017-01-26T02:05:56.020Z,1021.2
2017-01-26T02:16:08.993Z,1020.9
2017-01-26T02:26:23.734Z,1020.9
2017-01-26T02:36:37.892Z,1020.8
2017-01-26T02:46:52.991Z,1020.8
2017-01-26T02:57:07.414Z,1020.8
2017-01-26T03:07:21.275Z,1020.8
2017-01-26T03:17:34.516Z,1020.6
2017-01-26T03:27:49.451Z,1020.6
2017-01-26T03:38:02.609Z,1020.5
2017-01-26T03:48:17.218Z,1020.5
2017-01-26T03:58:30.462Z,1020.3
2017-01-26T04:08:43.335Z,1020.3
2017-01-26T04:18:57.066Z,1020.2
2017-01-26T04:29:11.501Z,1020.2
2017-01-26T04:39:25.880Z,1020.1
2017-01-26T04:49:40.551Z,1020.1
2017-01-26T04:59:55.270Z,1019.9
2017-01-26T05:10:10.020Z,1019.9
2017-01-26T05:20:24.810Z,1019.7
2017-01-26T05:30:39.174Z,1019.7
2017-01-26T05:40:54.011Z,1019.5
2017-01-26T05:51:07.766Z,1019.4
2017-01-26T06:01:21.258Z,1019.4
2017-01-26T06:11:35.642Z,1019.4
2017-01-26T06:21:48.667Z,1019.5
2017-01-26T06:32:02.587Z,1019.5
2017-01-26T06:42:17.332Z,1019.4
2017-01-26T06:52:31.104Z,1019.3
2017-01-26T07:02:45.113Z,1019.3
2017-01-26T07:12:58.740Z,1019.4
2017-01-26T07:23:12.073Z,1019.4
2017-01-26T07:33:26.244Z,1019.5
2017-01-26T07:43:39.796Z,1019.6
2017-01-26T07:53:54.090Z,1019.7
2017-01-26T08:04:07.708Z,1019.6
2017-01-26T08:14:21.180Z,1019.5
2017-01-26T08:24:35.224Z,1019.5
2017-01-26T08:34:48.973Z,1019.6
2017-01-26T08:45:02.734Z,1019.6
2017-01-26T08:55:17.478Z,1019.7
2017-01-26T09:05:30.497Z,1019.7
2017-01-26T09:15:43.594Z,1019.7
2017-01-26T09:25:58.533Z,1019.6
2017-01-26T09:36:13.350Z,1019.6
2017-01-26T09:46:26.248Z,1019.7
2017-01-26T09:56:40.796Z,1019.6
2017-01-26T10:06:54.539Z,1019.4
2017-01-26T10:17:07.653Z,1019.3
2017-01-26T10:27:22.447Z,1019.2
2017-01-26T10:37:36.529Z,1019
2017-01-26T10:47:51.467Z,1019
2017-01-26T10:58:05.758Z,1019
2017-01-26T11:08:19.366Z,1018.9
2017-01-26T11:18:33.245Z,1018.8
2017-01-26T11:39:01.622Z,1018.7
2017-01-26T11:49:16.525Z,1018.5
2017-01-26T11:59:30.338Z,1018.4
2017-01-26T12:09:45.424Z,1018.3
2017-01-26T12:19:59.648Z,1018.1
2017-01-26T12:30:13.536Z,1017.9
2017-01-26T12:40:27.039Z,1017.9
2017-01-26T12:50:41.396Z,1017.8
2017-01-26T13:00:55.645Z,1017.9
2017-01-26T13:11:09.482Z,1017.8
2017-01-26T13:21:23.165Z,1017.7
2017-01-26T13:31:36.808Z,1017.5
2017-01-26T13:41:50.342Z,1017.3
2017-01-26T13:52:03.551Z,1017.3
2017-01-26T14:02:18.821Z,1017.1
2017-01-26T14:12:32.696Z,1016.9
2017-01-26T14:22:46.569Z,1016.8
2017-01-26T14:32:59.506Z,1016.7
2017-01-26T14:43:13.936Z,1016.7
2017-01-26T14:53:28.766Z,1016.6
2017-01-26T15:03:41.849Z,1016.4
2017-01-26T15:13:56.210Z,1016.5
2017-01-26T15:24:10.275Z,1016.5
2017-01-26T15:34:23.971Z,1016.4
2017-01-26T15:44:37.799Z,1016.5
2017-01-26T15:54:50.985Z,1016.3
2017-01-26T16:05:04.672Z,1016.3
2017-01-26T16:15:18.465Z,1016.3
2017-01-26T16:25:32.523Z,1016.2
2017-01-26T16:35:46.373Z,1016.2
2017-01-26T16:45:59.861Z,1016.1
2017-01-26T16:56:13.428Z,1016.1
2017-01-26T17:06:27.335Z,1016
2017-01-26T17:16:42.309Z,1016.1
2017-01-26T17:26:57.337Z,1016.1
2017-01-26T17:37:10.653Z,1016.1
2017-01-26T17:47:24.123Z,1016.1
2017-01-26T17:57:38.162Z,1016
2017-01-26T18:07:52.125Z,1015.9
2017-01-26T18:18:05.799Z,1015.8
2017-01-26T18:28:20.782Z,1015.7
2017-01-26T18:38:34.962Z,1015.7
2017-01-26T18:48:48.490Z,1015.6
2017-01-26T18:59:02.994Z,1015.6
2017-01-26T19:09:16.416Z,1015.5
2017-01-26T19:19:30.296Z,1015.5
2017-01-26T19:29:43.742Z,1015.5
2017-01-26T19:39:58.399Z,1015.4
2017-01-26T19:50:13.320Z,1015.3
2017-01-26T20:00:27.135Z,1015.3
2017-01-26T20:10:41.090Z,1015.3
2017-01-26T20:20:56.230Z,1015.2
2017-01-26T20:31:10.757Z,1015.3
2017-01-26T20:41:24.574Z,1015.2
2017-01-26T20:51:38.404Z,1015.2
2017-01-26T21:01:52.317Z,1015
2017-01-26T21:12:06.952Z,1014.9
2017-01-26T21:22:21.876Z,1014.9
2017-01-26T21:32:35.905Z,1014.9
2017-01-26T21:42:49.392Z,1014.8
2017-01-26T21:53:04.275Z,1014.8
2017-01-26T22:03:17.821Z,1014.8
2017-01-26T22:13:30.893Z,1014.7
2017-01-26T22:23:43.873Z,1014.6
2017-01-26T22:33:56.946Z,1014.5
2017-01-26T22:44:10.517Z,1014.5
2017-01-26T22:54:24.310Z,1014.3
2017-01-26T23:04:39.335Z,1014.2
2017-01-26T23:14:52.390Z,1014
2017-01-26T23:25:05.475Z,1014
2017-01-26T23:35:19.732Z,1013.9
2017-01-26T23:45:33.166Z,1013.9
2017-01-26T23:55:46.314Z,1013.7
